createdAt,value
2018-07-04T00:02:24.785Z,7.00
2018-07-04T00:05:04.386Z,6.67
2018-07-04T00:07:43.852Z,5.90
2018-07-04T00:10:23.225Z,5.30
2018-07-04T00:13:02.927Z,6.30
2018-07-04T00:15:42.429Z,6.00
2018-07-04T00:18:22.025Z,6.27
2018-07-04T00:21:01.501Z,7.33
2018-07-04T00:23:40.941Z,6.63
2018-07-04T00:26:20.432Z,5.83
2018-07-04T00:28:59.979Z,6.07
2018-07-04T00:31:39.572Z,6.47
2018-07-04T00:34:19.107Z,6.03
2018-07-04T00:36:58.732Z,6.10
2018-07-04T00:39:38.357Z,6.30
2018-07-04T00:42:17.783Z,6.10
2018-07-04T00:44:57.372Z,6.10
2018-07-04T00:47:36.869Z,5.50
2018-07-04T00:50:16.512Z,5.70
2018-07-04T00:52:56.116Z,6.73
2018-07-04T00:55:35.661Z,5.70
2018-07-04T00:58:15.124Z,5.80
2018-07-04T01:00:54.576Z,5.67
2018-07-04T01:03:34.060Z,7.20
2018-07-04T01:06:13.680Z,6.23
2018-07-04T01:08:53.161Z,5.80
2018-07-04T01:11:32.781Z,6.27
2018-07-04T01:14:12.300Z,6.03
2018-07-04T01:16:51.876Z,7.30
2018-07-04T01:19:31.519Z,7.20
2018-07-04T01:22:10.980Z,6.70
2018-07-04T01:24:50.369Z,6.43
2018-07-04T01:27:29.787Z,7.43
2018-07-04T01:30:09.333Z,7.97
2018-07-04T01:32:49.021Z,8.60
2018-07-04T01:35:28.645Z,7.67
2018-07-04T01:38:08.245Z,8.10
2018-07-04T01:40:47.840Z,9.13
2018-07-04T01:43:27.532Z,9.93
2018-07-04T01:46:06.988Z,9.47
2018-07-04T01:48:46.484Z,9.70
2018-07-04T01:51:26.099Z,9.03
2018-07-04T01:54:05.696Z,8.53
2018-07-04T01:56:45.196Z,10.50
2018-07-04T01:59:24.783Z,6.87
2018-07-04T02:02:04.452Z,7.33
2018-07-04T02:04:43.913Z,8.30
2018-07-04T02:07:23.507Z,7.40
2018-07-04T02:10:03.131Z,7.53
2018-07-04T02:12:42.748Z,7.80
2018-07-04T02:15:22.161Z,8.73
2018-07-04T02:18:01.781Z,8.13
2018-07-04T02:20:41.423Z,7.80
2018-07-04T02:23:21.065Z,7.80
2018-07-04T02:26:00.636Z,7.47
2018-07-04T02:28:40.244Z,8.20
2018-07-04T02:31:19.752Z,7.70
2018-07-04T02:33:59.349Z,8.60
2018-07-04T02:36:38.960Z,10.23
2018-07-04T02:39:18.476Z,11.00
2018-07-04T02:41:58.133Z,11.80
2018-07-04T02:44:37.849Z,11.60
2018-07-04T02:47:23.031Z,10.90
2018-07-04T02:50:02.640Z,11.20
2018-07-04T02:52:42.317Z,12.20
2018-07-04T02:55:21.938Z,13.07
2018-07-04T02:58:01.549Z,14.00
2018-07-04T03:00:41.081Z,14.10
2018-07-04T03:03:20.662Z,15.00
2018-07-04T03:06:00.333Z,15.27
2018-07-04T03:08:39.744Z,14.23
2018-07-04T03:11:19.395Z,14.63
2018-07-04T03:13:59.045Z,13.43
2018-07-04T03:16:38.626Z,15.27
2018-07-04T03:19:18.207Z,14.93
2018-07-04T03:21:57.789Z,14.03
2018-07-04T03:24:37.172Z,13.40
2018-07-04T03:27:16.569Z,12.83
2018-07-04T03:29:56.104Z,14.87
2018-07-04T03:32:35.683Z,13.90
2018-07-04T03:35:15.256Z,14.00
2018-07-04T03:37:54.792Z,14.73
2018-07-04T03:40:34.412Z,12.80
2018-07-04T03:43:14.107Z,14.03
2018-07-04T03:45:53.575Z,14.23
2018-07-04T03:48:33.184Z,14.80
2018-07-04T03:51:12.929Z,14.73
2018-07-04T03:53:52.575Z,14.83
2018-07-04T03:56:32.082Z,14.70
2018-07-04T03:59:11.617Z,15.63
2018-07-04T04:01:50.867Z,17.33
2018-07-04T04:04:30.373Z,15.80
2018-07-04T04:07:09.792Z,17.10
2018-07-04T04:09:49.470Z,18.17
2018-07-04T04:12:29.156Z,17.63
2018-07-04T04:15:08.704Z,17.80
2018-07-04T04:17:48.320Z,19.00
2018-07-04T04:20:27.858Z,16.33
2018-07-04T04:23:07.380Z,16.83
2018-07-04T04:25:47.798Z,17.20
2018-07-04T04:28:27.204Z,15.37
2018-07-04T04:31:06.600Z,17.17
2018-07-04T04:33:46.259Z,14.67
2018-07-04T04:36:25.935Z,14.47
2018-07-04T04:39:05.526Z,14.33
2018-07-04T04:41:45.156Z,12.77
2018-07-04T04:44:24.718Z,13.20
2018-07-04T04:47:04.221Z,13.00
2018-07-04T04:49:43.592Z,11.97
2018-07-04T04:52:23.170Z,12.37
2018-07-04T04:55:02.802Z,13.83
2018-07-04T04:57:42.425Z,11.90
2018-07-04T05:00:21.982Z,11.07
2018-07-04T05:03:01.713Z,12.33
2018-07-04T05:05:41.116Z,12.57
2018-07-04T05:08:20.739Z,12.17
2018-07-04T05:11:00.131Z,10.43
2018-07-04T05:13:39.813Z,10.70
2018-07-04T05:16:19.507Z,11.90
2018-07-04T05:18:59.044Z,12.43
2018-07-04T05:21:38.644Z,10.27
2018-07-04T05:24:18.212Z,9.80
2018-07-04T05:26:57.715Z,7.57
2018-07-04T05:29:37.328Z,6.90
2018-07-04T05:32:16.708Z,6.90
2018-07-04T05:34:56.348Z,6.87
2018-07-04T05:37:35.760Z,5.67
2018-07-04T05:40:15.312Z,5.77
2018-07-04T05:42:54.873Z,5.53
2018-07-04T05:45:34.630Z,5.10
2018-07-04T05:48:14.170Z,5.27
2018-07-04T05:50:53.825Z,4.77
2018-07-04T05:53:33.255Z,5.47
2018-07-04T05:56:12.851Z,5.20
2018-07-04T05:58:52.581Z,5.30
2018-07-04T06:01:32.198Z,5.00
2018-07-04T06:04:11.590Z,4.87
2018-07-04T06:06:51.037Z,6.80
2018-07-04T06:09:30.569Z,6.27
2018-07-04T06:12:10.244Z,4.90
2018-07-04T06:14:49.824Z,5.27
2018-07-04T06:17:29.385Z,5.10
2018-07-04T06:20:09.277Z,4.90
2018-07-04T06:22:48.887Z,4.20
2018-07-04T06:25:28.431Z,5.23
2018-07-04T06:28:08.088Z,4.60
2018-07-04T06:30:47.576Z,4.30
2018-07-04T06:33:27.068Z,4.53
2018-07-04T06:36:06.710Z,4.10
2018-07-04T06:38:33.741Z,4.13
2018-07-04T06:41:00.809Z,4.17
2018-07-04T06:43:27.896Z,4.00
2018-07-04T06:45:54.929Z,3.93
2018-07-04T06:48:21.963Z,3.60
2018-07-04T06:50:49.091Z,4.03
2018-07-04T06:53:16.116Z,3.60
2018-07-04T06:55:43.185Z,3.30
2018-07-04T06:58:10.233Z,3.03
2018-07-04T07:00:37.301Z,3.77
2018-07-04T07:03:16.678Z,3.30
2018-07-04T07:05:56.101Z,2.83
2018-07-04T07:08:35.688Z,3.87
2018-07-04T07:11:15.272Z,3.03
2018-07-04T07:13:54.808Z,3.93
2018-07-04T07:16:34.372Z,3.30
2018-07-04T07:19:13.929Z,3.47
2018-07-04T07:21:53.473Z,2.90
2018-07-04T07:24:32.911Z,2.60
2018-07-04T07:27:12.571Z,2.40
2018-07-04T07:29:52.124Z,3.10
2018-07-04T07:32:31.590Z,2.90
2018-07-04T07:35:11.267Z,2.30
2018-07-04T07:37:50.804Z,2.90
2018-07-04T07:40:30.368Z,2.23
2018-07-04T07:43:09.890Z,2.20
2018-07-04T07:45:49.417Z,2.50
2018-07-04T07:48:28.908Z,4.23
2018-07-04T07:51:08.441Z,2.47
2018-07-04T07:53:48.116Z,2.13
2018-07-04T07:56:27.772Z,2.00
2018-07-04T07:59:07.297Z,3.00
2018-07-04T08:01:46.781Z,2.40
2018-07-04T08:04:26.298Z,2.27
2018-07-04T08:07:05.928Z,1.80
2018-07-04T08:09:45.472Z,2.10
2018-07-04T08:12:25.158Z,2.67
2018-07-04T08:15:04.733Z,2.20
2018-07-04T08:17:44.485Z,2.67
2018-07-04T08:20:23.959Z,2.10
2018-07-04T08:23:03.541Z,2.27
2018-07-04T08:25:42.980Z,2.40
2018-07-04T08:28:22.452Z,2.23
2018-07-04T08:31:02.001Z,2.33
2018-07-04T08:33:42.552Z,2.23
2018-07-04T08:36:22.258Z,3.03
2018-07-04T08:39:01.746Z,2.30
2018-07-04T08:41:41.032Z,2.43
2018-07-04T08:44:20.593Z,2.13
2018-07-04T08:47:00.145Z,2.27
2018-07-04T08:49:39.812Z,1.73
2018-07-04T08:52:19.332Z,2.33
2018-07-04T08:54:58.837Z,2.17
2018-07-04T08:57:38.342Z,1.93
2018-07-04T09:00:17.984Z,2.00
2018-07-04T09:02:57.516Z,2.10
2018-07-04T09:05:36.943Z,2.10
2018-07-04T09:08:16.420Z,2.53
2018-07-04T09:10:56.093Z,2.10
2018-07-04T09:13:35.717Z,1.90
2018-07-04T09:16:15.157Z,1.67
2018-07-04T09:18:54.677Z,2.10
2018-07-04T09:21:34.204Z,2.00
2018-07-04T09:24:13.745Z,2.30
2018-07-04T09:26:53.204Z,2.17
2018-07-04T09:29:32.801Z,1.90
2018-07-04T09:32:12.267Z,2.47
2018-07-04T09:34:51.969Z,2.20
2018-07-04T09:37:31.555Z,2.20
2018-07-04T09:40:11.141Z,2.30
2018-07-04T09:42:50.760Z,1.90
2018-07-04T09:45:30.325Z,2.07
2018-07-04T09:48:09.869Z,2.30
2018-07-04T09:50:49.513Z,2.20
2018-07-04T09:53:29.057Z,2.30
2018-07-04T09:56:08.705Z,2.60
2018-07-04T09:58:48.284Z,2.10
2018-07-04T10:01:27.575Z,2.63
2018-07-04T10:04:07.221Z,2.13
2018-07-04T10:06:46.854Z,2.20
2018-07-04T10:09:26.502Z,1.80
2018-07-04T10:12:06.043Z,2.23
2018-07-04T10:14:45.639Z,2.43
2018-07-04T10:17:25.248Z,2.70
2018-07-04T10:20:04.724Z,1.90
2018-07-04T10:22:44.061Z,2.33
2018-07-04T10:25:23.833Z,2.03
2018-07-04T10:28:03.512Z,2.23
2018-07-04T10:30:43.009Z,2.50
2018-07-04T10:33:22.694Z,2.97
2018-07-04T10:36:02.085Z,2.23
2018-07-04T10:38:41.652Z,2.67
2018-07-04T10:41:21.268Z,2.43
2018-07-04T10:44:00.917Z,1.80
2018-07-04T10:46:40.609Z,1.97
2018-07-04T10:49:20.105Z,2.00
2018-07-04T10:51:59.697Z,2.83
2018-07-04T10:54:39.620Z,2.77
2018-07-04T10:57:19.169Z,2.30
2018-07-04T10:59:58.511Z,2.47
2018-07-04T11:02:37.968Z,2.30
2018-07-04T11:05:17.365Z,2.50
2018-07-04T11:07:57.057Z,3.03
2018-07-04T11:10:36.653Z,2.50
2018-07-04T11:13:16.513Z,2.60
2018-07-04T11:15:55.952Z,2.67
2018-07-04T11:18:35.465Z,1.97
2018-07-04T11:21:15.109Z,3.07
2018-07-04T11:23:54.685Z,2.87
2018-07-04T11:26:34.041Z,2.30
2018-07-04T11:29:13.524Z,2.80
2018-07-04T11:31:52.948Z,2.73
2018-07-04T11:34:32.404Z,2.60
2018-07-04T11:37:12.032Z,2.20
2018-07-04T11:39:51.617Z,2.77
2018-07-04T11:42:31.141Z,2.30
2018-07-04T11:45:10.807Z,1.63
2018-07-04T11:47:37.841Z,2.43
2018-07-04T11:50:04.888Z,2.33
2018-07-04T11:52:31.943Z,3.07
2018-07-04T11:54:59.012Z,2.70
2018-07-04T11:57:26.061Z,2.23
2018-07-04T11:59:53.107Z,2.20
2018-07-04T12:02:20.148Z,3.07
2018-07-04T12:04:59.629Z,2.27
2018-07-04T12:07:26.664Z,2.33
2018-07-04T12:09:53.712Z,2.30
2018-07-04T12:12:20.761Z,1.93
2018-07-04T12:14:47.809Z,2.80
2018-07-04T12:17:14.841Z,2.10
2018-07-04T12:19:41.909Z,2.37
2018-07-04T12:22:08.985Z,1.97
2018-07-04T12:24:36.048Z,2.33
2018-07-04T12:27:03.181Z,2.20
2018-07-04T12:29:30.164Z,1.87
2018-07-04T12:31:57.287Z,2.10
2018-07-04T12:34:24.276Z,2.10
2018-07-04T12:36:51.304Z,2.50
2018-07-04T12:39:18.348Z,3.33
2018-07-04T12:41:45.411Z,2.53
2018-07-04T12:44:12.431Z,2.80
2018-07-04T12:46:39.471Z,2.83
2018-07-04T12:49:06.552Z,4.53
2018-07-04T12:51:34.817Z,2.60
2018-07-04T12:54:07.379Z,2.80
2018-07-04T12:56:46.937Z,2.50
2018-07-04T12:59:26.446Z,2.63
2018-07-04T13:02:05.836Z,3.90
2018-07-04T13:04:45.752Z,2.67
2018-07-04T13:07:25.809Z,1.83
2018-07-04T13:10:05.386Z,2.73
2018-07-04T13:12:44.832Z,2.47
2018-07-04T13:15:24.545Z,2.43
2018-07-04T13:18:04.052Z,2.47
2018-07-04T13:20:43.681Z,2.20
2018-07-04T13:23:23.199Z,3.30
2018-07-04T13:26:02.616Z,2.57
2018-07-04T13:28:42.703Z,2.80
2018-07-04T13:31:22.180Z,2.40
2018-07-04T13:34:01.752Z,2.53
2018-07-04T13:36:41.144Z,1.90
2018-07-04T13:39:20.777Z,2.10
2018-07-04T13:42:00.436Z,2.43
2018-07-04T13:44:40.091Z,2.20
2018-07-04T13:47:19.672Z,2.50
2018-07-04T13:49:59.205Z,2.20
2018-07-04T13:52:38.745Z,2.07
2018-07-04T13:55:18.376Z,2.47
2018-07-04T13:57:58.012Z,2.10
2018-07-04T14:00:37.564Z,2.80
2018-07-04T14:03:17.165Z,1.83
2018-07-04T14:05:56.548Z,2.30
2018-07-04T14:08:36.061Z,1.73
2018-07-04T14:11:15.707Z,2.57
2018-07-04T14:13:55.308Z,2.07
2018-07-04T14:16:35.672Z,2.00
2018-07-04T14:19:15.272Z,2.10
2018-07-04T14:21:54.880Z,1.97
2018-07-04T14:24:34.285Z,2.17
2018-07-04T14:27:13.924Z,2.10
2018-07-04T14:29:53.300Z,2.00
2018-07-04T14:32:32.697Z,2.00
2018-07-04T14:35:12.025Z,1.83
2018-07-04T14:37:51.621Z,1.60
2018-07-04T14:40:31.153Z,2.23
2018-07-04T14:43:10.685Z,2.10
2018-07-04T14:45:50.362Z,2.07
2018-07-04T14:48:29.886Z,1.63
2018-07-04T14:51:09.345Z,1.70
2018-07-04T14:53:48.906Z,2.57
2018-07-04T14:56:28.521Z,2.40
2018-07-04T14:59:08.051Z,2.07
2018-07-04T15:01:47.583Z,2.40
2018-07-04T15:04:27.090Z,2.07
2018-07-04T15:07:06.525Z,1.90
2018-07-04T15:09:46.042Z,2.33
2018-07-04T15:12:25.521Z,1.60
2018-07-04T15:15:05.176Z,1.50
2018-07-04T15:17:44.813Z,1.90
2018-07-04T15:20:24.816Z,2.10
2018-07-04T15:23:04.384Z,1.90
2018-07-04T15:25:44.556Z,2.13
2018-07-04T15:28:24.033Z,1.80
2018-07-04T15:31:03.706Z,2.57
2018-07-04T15:33:43.179Z,1.40
2018-07-04T15:36:22.850Z,1.60
2018-07-04T15:39:02.442Z,1.90
2018-07-04T15:41:41.937Z,1.73
2018-07-04T15:44:21.524Z,2.80
2018-07-04T15:47:01.035Z,1.93
2018-07-04T15:49:40.605Z,2.20
2018-07-04T15:52:20.120Z,2.10
2018-07-04T15:54:59.585Z,1.57
2018-07-04T15:57:39.125Z,2.30
2018-07-04T16:00:18.507Z,1.87
2018-07-04T16:02:58.132Z,1.80
2018-07-04T16:05:37.818Z,1.93
2018-07-04T16:08:17.329Z,1.80
2018-07-04T16:10:57.039Z,2.30
2018-07-04T16:13:36.605Z,1.90
2018-07-04T16:16:16.872Z,1.70
2018-07-04T16:18:56.460Z,2.10
2018-07-04T16:21:36.041Z,1.70
2018-07-04T16:24:16.021Z,1.90
2018-07-04T16:26:55.528Z,2.27
2018-07-04T16:29:34.936Z,1.77
2018-07-04T16:32:14.332Z,2.37
2018-07-04T16:34:54.084Z,2.27
2018-07-04T16:37:33.551Z,1.70
2018-07-04T16:40:13.008Z,2.07
2018-07-04T16:42:52.717Z,1.97
2018-07-04T16:45:32.212Z,2.13
2018-07-04T16:48:12.014Z,2.23
2018-07-04T16:50:51.504Z,2.13
2018-07-04T16:53:31.125Z,3.07
2018-07-04T16:56:10.720Z,2.53
2018-07-04T16:58:50.290Z,1.80
2018-07-04T17:01:29.784Z,2.17
2018-07-04T17:04:09.450Z,1.93
2018-07-04T17:06:49.071Z,1.83
2018-07-04T17:09:28.756Z,1.97
2018-07-04T17:12:08.426Z,2.23
2018-07-04T17:14:47.961Z,2.50
2018-07-04T17:17:27.633Z,1.87
2018-07-04T17:20:07.408Z,2.50
2018-07-04T17:22:46.899Z,2.33
2018-07-04T17:25:26.490Z,2.03
2018-07-04T17:28:06.000Z,2.00
2018-07-04T17:30:45.352Z,2.60
2018-07-04T17:33:24.817Z,2.33
2018-07-04T17:36:04.230Z,2.57
2018-07-04T17:38:43.837Z,2.00
2018-07-04T17:41:23.324Z,2.10
2018-07-04T17:44:02.860Z,2.70
2018-07-04T17:46:42.364Z,3.00
2018-07-04T17:49:21.928Z,1.87
2018-07-04T17:52:02.468Z,2.50
2018-07-04T17:54:41.872Z,2.90
2018-07-04T17:57:21.569Z,2.50
2018-07-04T18:00:01.285Z,3.23
2018-07-04T18:02:40.701Z,2.73
2018-07-04T18:05:20.356Z,2.30
2018-07-04T18:07:59.994Z,2.50
2018-07-04T18:10:39.536Z,2.83
2018-07-04T18:13:19.232Z,2.67
2018-07-04T18:15:58.854Z,2.40
2018-07-04T18:18:38.509Z,2.33
2018-07-04T18:21:25.073Z,2.27
2018-07-04T18:24:05.781Z,2.10
2018-07-04T18:26:45.284Z,2.27
2018-07-04T18:29:24.987Z,1.90
2018-07-04T18:32:05.016Z,1.90
2018-07-04T18:34:44.396Z,2.10
2018-07-04T18:37:24.000Z,2.20
2018-07-04T18:40:03.493Z,2.30
2018-07-04T18:42:42.949Z,2.47
2018-07-04T18:45:22.661Z,2.30
2018-07-04T18:48:02.393Z,2.30
2018-07-04T18:50:42.045Z,2.00
2018-07-04T18:53:21.518Z,1.70
2018-07-04T18:56:01.132Z,1.70
2018-07-04T18:58:40.724Z,1.77
2018-07-04T19:01:20.144Z,1.70
2018-07-04T19:03:59.693Z,2.77
2018-07-04T19:06:39.681Z,2.43
2018-07-04T19:09:19.219Z,1.70
2018-07-04T19:11:58.748Z,1.80
2018-07-04T19:14:38.269Z,1.67
2018-07-04T19:17:17.995Z,1.83
2018-07-04T19:19:57.440Z,1.70
2018-07-04T19:22:36.929Z,2.10
2018-07-04T19:25:16.365Z,3.20
2018-07-04T19:27:55.925Z,2.00
2018-07-04T19:30:35.333Z,1.90
2018-07-04T19:33:15.072Z,1.97
2018-07-04T19:35:54.553Z,1.63
2018-07-04T19:38:34.141Z,1.77
2018-07-04T19:41:13.848Z,1.77
2018-07-04T19:43:53.593Z,1.73
2018-07-04T19:46:33.006Z,1.50
2018-07-04T19:49:12.553Z,1.70
2018-07-04T19:51:52.197Z,1.60
2018-07-04T19:54:31.840Z,1.53
2018-07-04T19:57:11.493Z,1.47
2018-07-04T19:59:50.988Z,1.80
2018-07-04T20:02:30.684Z,1.30
2018-07-04T20:05:10.257Z,1.73
2018-07-04T20:07:49.964Z,1.90
2018-07-04T20:10:29.486Z,1.60
2018-07-04T20:13:09.137Z,1.83
2018-07-04T20:15:48.661Z,1.80
2018-07-04T20:18:28.292Z,1.90
2018-07-04T20:21:07.963Z,1.87
2018-07-04T20:23:47.555Z,1.97
2018-07-04T20:26:26.937Z,2.27
2018-07-04T20:29:06.629Z,2.10
2018-07-04T20:31:46.146Z,1.97
2018-07-04T20:34:25.619Z,1.73
2018-07-04T20:37:05.209Z,1.97
2018-07-04T20:39:44.760Z,2.33
2018-07-04T20:42:24.442Z,2.03
2018-07-04T20:45:03.981Z,1.70
2018-07-04T20:47:43.576Z,1.93
2018-07-04T20:50:23.024Z,2.03
2018-07-04T20:53:02.707Z,2.23
2018-07-04T20:55:42.397Z,2.23
2018-07-04T20:58:21.886Z,1.80
2018-07-04T21:01:01.402Z,1.87
2018-07-04T21:03:40.847Z,1.83
2018-07-04T21:06:20.433Z,2.10
2018-07-04T21:08:59.901Z,1.77
2018-07-04T21:11:39.605Z,2.30
2018-07-04T21:14:19.194Z,1.90
2018-07-04T21:16:58.893Z,2.03
2018-07-04T21:19:38.461Z,1.90
2018-07-04T21:22:17.880Z,2.00
2018-07-04T21:24:57.275Z,2.00
2018-07-04T21:27:36.883Z,1.90
2018-07-04T21:30:16.253Z,1.80
2018-07-04T21:32:55.736Z,2.17
2018-07-04T21:35:35.397Z,1.80
2018-07-04T21:38:14.936Z,2.07
2018-07-04T21:40:54.551Z,2.20
2018-07-04T21:43:34.071Z,2.17
2018-07-04T21:46:13.726Z,2.60
2018-07-04T21:48:53.257Z,2.10
2018-07-04T21:51:32.895Z,2.50
2018-07-04T21:54:12.528Z,1.83
2018-07-04T21:56:52.188Z,2.30
2018-07-04T21:59:32.054Z,2.60
2018-07-04T22:02:11.592Z,2.27
2018-07-04T22:04:51.247Z,2.30
2018-07-04T22:07:30.807Z,1.73
2018-07-04T22:10:10.305Z,2.70
2018-07-04T22:12:49.841Z,2.43
2018-07-04T22:15:29.456Z,2.57
2018-07-04T22:18:09.108Z,2.90
2018-07-04T22:20:48.633Z,2.80
2018-07-04T22:23:28.215Z,2.40
2018-07-04T22:26:07.806Z,3.00
2018-07-04T22:28:47.233Z,2.33
2018-07-04T22:31:26.749Z,3.13
2018-07-04T22:34:06.167Z,2.80
2018-07-04T22:36:45.644Z,3.10
2018-07-04T22:39:25.329Z,2.63
2018-07-04T22:42:04.964Z,2.60
2018-07-04T22:44:44.622Z,2.83
2018-07-04T22:47:24.156Z,2.87
2018-07-04T22:50:03.816Z,3.00
2018-07-04T22:52:43.404Z,2.77
2018-07-04T22:55:23.013Z,3.00
2018-07-04T22:58:02.665Z,2.70
2018-07-04T23:00:42.272Z,3.60
2018-07-04T23:03:21.672Z,3.07
2018-07-04T23:06:01.293Z,3.17
2018-07-04T23:08:41.589Z,4.73
2018-07-04T23:11:21.244Z,3.30
2018-07-04T23:14:00.891Z,3.70
2018-07-04T23:16:40.533Z,3.47
2018-07-04T23:19:20.181Z,3.63
2018-07-04T23:21:59.772Z,3.50
2018-07-04T23:24:39.336Z,3.60
2018-07-04T23:27:18.942Z,3.57
2018-07-04T23:29:58.588Z,4.00
2018-07-04T23:32:37.945Z,3.87
2018-07-04T23:35:17.261Z,3.70
2018-07-04T23:37:57.444Z,4.40
2018-07-04T23:40:37.013Z,3.93
2018-07-04T23:43:16.504Z,4.13
2018-07-04T23:45:56.078Z,4.67
2018-07-04T23:48:35.546Z,4.50
2018-07-04T23:51:15.037Z,4.57
2018-07-04T23:53:54.545Z,4.83
2018-07-04T23:56:33.944Z,4.03
2018-07-04T23:59:13.503Z,4.50
